sensor_id;sensor_type;location;lat;lon;timestamp;temperature;humidity
21318;DHT22;10818;50.830;6.524;2023-04-07T00:03:01;9.90;99.90
21318;DHT22;10818;50.830;6.524;2023-04-07T00:08:06;9.90;99.90
21318;DHT22;10818;50.830;6.524;2023-04-07T00:13:06;9.90;99.90
21318;DHT22;10818;50.830;6.524;2023-04-07T00:18:07;9.90;99.90
21318;DHT22;10818;50.830;6.524;2023-04-07T00:23:07;9.90;99.90
21318;DHT22;10818;50.830;6.524;2023-04-07T00:28:08;9.90;99.90
21318;DHT22;10818;50.830;6.524;2023-04-07T00:33:08;9.90;99.90
21318;DHT22;10818;50.830;6.524;2023-04-07T00:38:09;9.90;99.90
21318;DHT22;10818;50.830;6.524;2023-04-07T00:43:09;9.90;99.90
21318;DHT22;10818;50.830;6.524;2023-04-07T00:48:09;9.90;99.90
21318;DHT22;10818;50.830;6.524;2023-04-07T00:53:11;9.90;99.90
21318;DHT22;10818;50.830;6.524;2023-04-07T00:58:11;9.90;99.90
21318;DHT22;10818;50.830;6.524;2023-04-07T01:03:15;9.90;99.90
21318;DHT22;10818;50.830;6.524;2023-04-07T01:08:27;9.90;99.90
21318;DHT22;10818;50.830;6.524;2023-04-07T01:13:31;9.90;99.90
21318;DHT22;10818;50.830;6.524;2023-04-07T01:18:34;9.90;99.90
21318;DHT22;10818;50.830;6.524;2023-04-07T01:23:57;9.80;99.90
21318;DHT22;10818;50.830;6.524;2023-04-07T01:34:08;9.90;99.90
21318;DHT22;10818;50.830;6.524;2023-04-07T01:39:08;9.80;99.90
21318;DHT22;10818;50.830;6.524;2023-04-07T01:44:10;9.80;99.90
21318;DHT22;10818;50.830;6.524;2023-04-07T01:49:11;9.80;99.90
21318;DHT22;10818;50.830;6.524;2023-04-07T01:54:12;9.80;99.90
21318;DHT22;10818;50.830;6.524;2023-04-07T01:59:13;9.70;99.90
21318;DHT22;10818;50.830;6.524;2023-04-07T02:04:24;9.70;99.90
21318;DHT22;10818;50.830;6.524;2023-04-07T02:09:29;9.70;99.90
21318;DHT22;10818;50.830;6.524;2023-04-07T02:14:30;9.70;99.90
21318;DHT22;10818;50.830;6.524;2023-04-07T02:19:32;9.70;99.90
21318;DHT22;10818;50.830;6.524;2023-04-07T02:24:35;9.70;99.90
21318;DHT22;10818;50.830;6.524;2023-04-07T02:29:35;9.70;99.90
21318;DHT22;10818;50.830;6.524;2023-04-07T02:34:35;9.80;99.90
21318;DHT22;10818;50.830;6.524;2023-04-07T02:39:36;9.70;99.90
21318;DHT22;10818;50.830;6.524;2023-04-07T02:44:36;9.70;99.90
21318;DHT22;10818;50.830;6.524;2023-04-07T02:49:37;9.70;99.90
21318;DHT22;10818;50.830;6.524;2023-04-07T02:54:37;9.60;99.90
21318;DHT22;10818;50.830;6.524;2023-04-07T02:59:38;9.60;99.90
21318;DHT22;10818;50.830;6.524;2023-04-07T03:04:38;9.60;99.90
21318;DHT22;10818;50.830;6.524;2023-04-07T03:09:39;9.60;99.90
21318;DHT22;10818;50.830;6.524;2023-04-07T03:14:39;9.50;99.90
21318;DHT22;10818;50.830;6.524;2023-04-07T03:19:39;9.50;99.90
21318;DHT22;10818;50.830;6.524;2023-04-07T03:24:40;9.50;99.90
21318;DHT22;10818;50.830;6.524;2023-04-07T03:29:40;9.40;99.90
21318;DHT22;10818;50.830;6.524;2023-04-07T03:34:41;9.30;99.90
21318;DHT22;10818;50.830;6.524;2023-04-07T03:39:41;9.30;99.90
21318;DHT22;10818;50.830;6.524;2023-04-07T03:44:42;9.30;99.90
21318;DHT22;10818;50.830;6.524;2023-04-07T03:49:42;9.10;99.90
21318;DHT22;10818;50.830;6.524;2023-04-07T03:54:43;9.10;99.90
21318;DHT22;10818;50.830;6.524;2023-04-07T03:59:43;9.10;99.90
21318;DHT22;10818;50.830;6.524;2023-04-07T04:04:44;9.10;99.90
21318;DHT22;10818;50.830;6.524;2023-04-07T04:09:44;9.00;99.90
21318;DHT22;10818;50.830;6.524;2023-04-07T04:14:44;9.00;99.90
21318;DHT22;10818;50.830;6.524;2023-04-07T04:19:45;8.90;99.90
21318;DHT22;10818;50.830;6.524;2023-04-07T04:24:45;9.00;99.90
21318;DHT22;10818;50.830;6.524;2023-04-07T04:29:46;8.90;99.90
21318;DHT22;10818;50.830;6.524;2023-04-07T04:34:46;8.90;99.90
21318;DHT22;10818;50.830;6.524;2023-04-07T04:39:47;8.80;99.90
21318;DHT22;10818;50.830;6.524;2023-04-07T04:44:47;8.70;99.90
21318;DHT22;10818;50.830;6.524;2023-04-07T04:49:48;8.60;99.90
21318;DHT22;10818;50.830;6.524;2023-04-07T04:54:48;8.60;99.90
21318;DHT22;10818;50.830;6.524;2023-04-07T04:59:49;8.50;99.90
21318;DHT22;10818;50.830;6.524;2023-04-07T05:04:49;8.40;99.90
21318;DHT22;10818;50.830;6.524;2023-04-07T05:09:50;8.40;99.90
21318;DHT22;10818;50.830;6.524;2023-04-07T05:14:50;8.30;99.90
21318;DHT22;10818;50.830;6.524;2023-04-07T05:19:51;8.40;99.90
21318;DHT22;10818;50.830;6.524;2023-04-07T05:24:51;8.60;99.90
21318;DHT22;10818;50.830;6.524;2023-04-07T05:29:52;8.70;99.90
21318;DHT22;10818;50.830;6.524;2023-04-07T05:34:52;8.80;99.90
21318;DHT22;10818;50.830;6.524;2023-04-07T05:39:53;8.90;99.90
21318;DHT22;10818;50.830;6.524;2023-04-07T05:44:54;8.70;99.90
21318;DHT22;10818;50.830;6.524;2023-04-07T05:49:55;8.80;99.90
21318;DHT22;10818;50.830;6.524;2023-04-07T05:54:55;8.90;99.90
21318;DHT22;10818;50.830;6.524;2023-04-07T05:59:56;8.90;99.90
21318;DHT22;10818;50.830;6.524;2023-04-07T06:04:56;9.00;99.90
21318;DHT22;10818;50.830;6.524;2023-04-07T06:09:57;9.10;99.90
21318;DHT22;10818;50.830;6.524;2023-04-07T06:14:57;9.10;99.90
21318;DHT22;10818;50.830;6.524;2023-04-07T06:19:57;9.20;99.90
21318;DHT22;10818;50.830;6.524;2023-04-07T06:24:58;9.10;99.90
21318;DHT22;10818;50.830;6.524;2023-04-07T06:29:58;9.10;99.90
21318;DHT22;10818;50.830;6.524;2023-04-07T06:34:59;9.10;99.90
21318;DHT22;10818;50.830;6.524;2023-04-07T06:40:00;9.10;99.90
21318;DHT22;10818;50.830;6.524;2023-04-07T06:45:00;9.20;99.90
21318;DHT22;10818;50.830;6.524;2023-04-07T06:50:00;9.10;99.90
21318;DHT22;10818;50.830;6.524;2023-04-07T06:55:01;9.10;99.90
21318;DHT22;10818;50.830;6.524;2023-04-07T07:00:01;9.00;99.90
21318;DHT22;10818;50.830;6.524;2023-04-07T07:05:02;9.10;99.90
21318;DHT22;10818;50.830;6.524;2023-04-07T07:10:04;9.20;99.90
21318;DHT22;10818;50.830;6.524;2023-04-07T07:15:05;9.20;99.90
21318;DHT22;10818;50.830;6.524;2023-04-07T07:20:06;9.40;99.90
21318;DHT22;10818;50.830;6.524;2023-04-07T07:25:07;9.50;99.90
21318;DHT22;10818;50.830;6.524;2023-04-07T07:30:07;9.60;99.90
21318;DHT22;10818;50.830;6.524;2023-04-07T07:35:08;9.60;99.90
21318;DHT22;10818;50.830;6.524;2023-04-07T07:40:08;9.70;99.90
21318;DHT22;10818;50.830;6.524;2023-04-07T07:45:09;9.90;99.90
21318;DHT22;10818;50.830;6.524;2023-04-07T07:50:11;9.90;99.90
21318;DHT22;10818;50.830;6.524;2023-04-07T07:55:11;10.00;99.90
21318;DHT22;10818;50.830;6.524;2023-04-07T08:00:12;10.10;99.90
21318;DHT22;10818;50.830;6.524;2023-04-07T08:05:13;10.10;99.90
21318;DHT22;10818;50.830;6.524;2023-04-07T08:10:13;10.20;99.90
21318;DHT22;10818;50.830;6.524;2023-04-07T08:15:14;10.40;99.90
21318;DHT22;10818;50.830;6.524;2023-04-07T08:20:14;10.40;99.90
21318;DHT22;10818;50.830;6.524;2023-04-07T08:25:15;10.50;99.90
21318;DHT22;10818;50.830;6.524;2023-04-07T08:30:16;10.60;99.90
21318;DHT22;10818;50.830;6.524;2023-04-07T08:35:16;10.80;99.90
21318;DHT22;10818;50.830;6.524;2023-04-07T08:40:17;10.80;99.90
21318;DHT22;10818;50.830;6.524;2023-04-07T08:45:17;10.70;99.90
21318;DHT22;10818;50.830;6.524;2023-04-07T08:50:18;10.70;99.90
21318;DHT22;10818;50.830;6.524;2023-04-07T08:55:19;10.80;99.90
21318;DHT22;10818;50.830;6.524;2023-04-07T09:00:19;10.70;99.90
21318;DHT22;10818;50.830;6.524;2023-04-07T09:05:20;10.70;99.90
21318;DHT22;10818;50.830;6.524;2023-04-07T09:10:21;10.60;99.90
21318;DHT22;10818;50.830;6.524;2023-04-07T09:15:21;10.70;99.90
21318;DHT22;10818;50.830;6.524;2023-04-07T09:20:22;10.70;99.90
21318;DHT22;10818;50.830;6.524;2023-04-07T09:25:23;10.60;99.90
21318;DHT22;10818;50.830;6.524;2023-04-07T09:30:26;10.60;99.90
21318;DHT22;10818;50.830;6.524;2023-04-07T09:35:27;10.70;99.90
21318;DHT22;10818;50.830;6.524;2023-04-07T09:40:28;10.90;99.90
21318;DHT22;10818;50.830;6.524;2023-04-07T09:45:29;10.90;99.90
21318;DHT22;10818;50.830;6.524;2023-04-07T09:50:43;11.00;99.90
21318;DHT22;10818;50.830;6.524;2023-04-07T09:55:48;11.00;99.90
21318;DHT22;10818;50.830;6.524;2023-04-07T10:00:49;11.00;99.90
21318;DHT22;10818;50.830;6.524;2023-04-07T10:05:49;11.10;99.90
21318;DHT22;10818;50.830;6.524;2023-04-07T10:10:51;10.90;99.90
21318;DHT22;10818;50.830;6.524;2023-04-07T10:15:52;10.90;99.90
21318;DHT22;10818;50.830;6.524;2023-04-07T10:20:53;10.90;99.90
21318;DHT22;10818;50.830;6.524;2023-04-07T10:25:55;10.70;99.90
21318;DHT22;10818;50.830;6.524;2023-04-07T10:30:57;10.80;99.90
21318;DHT22;10818;50.830;6.524;2023-04-07T10:36:02;11.00;99.90
21318;DHT22;10818;50.830;6.524;2023-04-07T10:46:22;11.40;99.90
21318;DHT22;10818;50.830;6.524;2023-04-07T10:51:22;11.20;99.90
21318;DHT22;10818;50.830;6.524;2023-04-07T10:56:23;11.40;99.90
21318;DHT22;10818;50.830;6.524;2023-04-07T11:01:25;11.60;99.90
21318;DHT22;10818;50.830;6.524;2023-04-07T11:06:25;11.80;99.90
21318;DHT22;10818;50.830;6.524;2023-04-07T11:11:39;11.80;99.90
21318;DHT22;10818;50.830;6.524;2023-04-07T11:16:41;11.40;99.90
21318;DHT22;10818;50.830;6.524;2023-04-07T11:21:42;11.50;99.90
21318;DHT22;10818;50.830;6.524;2023-04-07T11:26:42;11.60;99.90
21318;DHT22;10818;50.830;6.524;2023-04-07T11:31:43;11.80;99.90
21318;DHT22;10818;50.830;6.524;2023-04-07T11:36:47;12.60;99.90
21318;DHT22;10818;50.830;6.524;2023-04-07T11:41:48;12.80;99.90
21318;DHT22;10818;50.830;6.524;2023-04-07T11:46:56;12.80;99.90
21318;DHT22;10818;50.830;6.524;2023-04-07T11:56:57;13.40;99.90
21318;DHT22;10818;50.830;6.524;2023-04-07T12:01:58;12.80;99.90
21318;DHT22;10818;50.830;6.524;2023-04-07T12:07:08;12.80;99.90
21318;DHT22;10818;50.830;6.524;2023-04-07T12:12:09;13.00;99.90
21318;DHT22;10818;50.830;6.524;2023-04-07T12:17:20;12.90;99.90
21318;DHT22;10818;50.830;6.524;2023-04-07T12:22:20;13.40;99.90
21318;DHT22;10818;50.830;6.524;2023-04-07T12:27:21;13.60;99.90
21318;DHT22;10818;50.830;6.524;2023-04-07T12:32:21;13.30;99.90
21318;DHT22;10818;50.830;6.524;2023-04-07T12:37:22;13.00;99.90
21318;DHT22;10818;50.830;6.524;2023-04-07T12:42:23;12.80;99.90
21318;DHT22;10818;50.830;6.524;2023-04-07T12:47:23;13.00;99.90
21318;DHT22;10818;50.830;6.524;2023-04-07T12:52:24;13.40;99.90
21318;DHT22;10818;50.830;6.524;2023-04-07T12:57:24;13.50;99.90
21318;DHT22;10818;50.830;6.524;2023-04-07T13:02:25;13.50;99.90
21318;DHT22;10818;50.830;6.524;2023-04-07T13:07:25;13.60;99.90
21318;DHT22;10818;50.830;6.524;2023-04-07T13:12:26;13.30;99.90
21318;DHT22;10818;50.830;6.524;2023-04-07T13:17:27;13.40;99.90
21318;DHT22;10818;50.830;6.524;2023-04-07T13:22:28;13.40;99.90
21318;DHT22;10818;50.830;6.524;2023-04-07T13:27:28;13.40;99.90
21318;DHT22;10818;50.830;6.524;2023-04-07T13:37:33;13.80;99.90
21318;DHT22;10818;50.830;6.524;2023-04-07T13:42:33;14.10;99.90
21318;DHT22;10818;50.830;6.524;2023-04-07T13:47:33;14.10;99.90
21318;DHT22;10818;50.830;6.524;2023-04-07T13:52:34;13.90;99.90
21318;DHT22;10818;50.830;6.524;2023-04-07T13:57:35;13.60;99.90
21318;DHT22;10818;50.830;6.524;2023-04-07T14:02:35;13.60;99.90
21318;DHT22;10818;50.830;6.524;2023-04-07T14:07:35;13.50;99.90
21318;DHT22;10818;50.830;6.524;2023-04-07T14:12:36;12.90;99.90
21318;DHT22;10818;50.830;6.524;2023-04-07T14:17:37;13.10;99.90
21318;DHT22;10818;50.830;6.524;2023-04-07T14:22:37;13.40;99.90
21318;DHT22;10818;50.830;6.524;2023-04-07T14:27:38;14.10;99.90
21318;DHT22;10818;50.830;6.524;2023-04-07T14:32:38;14.60;99.90
21318;DHT22;10818;50.830;6.524;2023-04-07T14:37:39;14.40;99.90
21318;DHT22;10818;50.830;6.524;2023-04-07T14:42:39;14.50;99.90
21318;DHT22;10818;50.830;6.524;2023-04-07T14:47:40;14.30;99.90
21318;DHT22;10818;50.830;6.524;2023-04-07T14:52:41;14.20;99.90
21318;DHT22;10818;50.830;6.524;2023-04-07T14:57:42;14.10;99.90
21318;DHT22;10818;50.830;6.524;2023-04-07T15:02:43;13.90;99.90
21318;DHT22;10818;50.830;6.524;2023-04-07T15:07:43;13.60;99.90
21318;DHT22;10818;50.830;6.524;2023-04-07T15:12:45;13.70;99.90
21318;DHT22;10818;50.830;6.524;2023-04-07T15:17:45;13.20;99.90
21318;DHT22;10818;50.830;6.524;2023-04-07T15:22:46;13.40;99.90
21318;DHT22;10818;50.830;6.524;2023-04-07T15:27:46;13.10;99.90
21318;DHT22;10818;50.830;6.524;2023-04-07T15:32:59;13.40;99.90
21318;DHT22;10818;50.830;6.524;2023-04-07T15:38:01;13.00;99.90
21318;DHT22;10818;50.830;6.524;2023-04-07T15:43:01;12.80;99.90
21318;DHT22;10818;50.830;6.524;2023-04-07T15:48:02;12.50;99.90
21318;DHT22;10818;50.830;6.524;2023-04-07T15:53:03;12.40;99.90
21318;DHT22;10818;50.830;6.524;2023-04-07T15:58:06;12.10;99.90
21318;DHT22;10818;50.830;6.524;2023-04-07T16:03:07;12.30;99.90
21318;DHT22;10818;50.830;6.524;2023-04-07T16:08:08;12.20;99.90
21318;DHT22;10818;50.830;6.524;2023-04-07T16:13:08;12.10;99.90
21318;DHT22;10818;50.830;6.524;2023-04-07T16:18:09;12.20;99.90
21318;DHT22;10818;50.830;6.524;2023-04-07T16:23:11;12.10;99.90
21318;DHT22;10818;50.830;6.524;2023-04-07T16:28:11;12.10;99.90
21318;DHT22;10818;50.830;6.524;2023-04-07T16:33:12;12.10;99.90
21318;DHT22;10818;50.830;6.524;2023-04-07T16:38:12;12.00;99.90
21318;DHT22;10818;50.830;6.524;2023-04-07T16:43:13;11.90;99.90
21318;DHT22;10818;50.830;6.524;2023-04-07T16:48:13;11.70;99.90
21318;DHT22;10818;50.830;6.524;2023-04-07T16:53:14;11.50;99.90
21318;DHT22;10818;50.830;6.524;2023-04-07T16:58:14;11.20;99.90
21318;DHT22;10818;50.830;6.524;2023-04-07T17:03:18;11.00;99.90
21318;DHT22;10818;50.830;6.524;2023-04-07T17:08:19;11.00;99.90
21318;DHT22;10818;50.830;6.524;2023-04-07T17:13:20;11.20;99.90
21318;DHT22;10818;50.830;6.524;2023-04-07T17:18:20;11.00;99.90
21318;DHT22;10818;50.830;6.524;2023-04-07T17:23:21;10.80;99.90
21318;DHT22;10818;50.830;6.524;2023-04-07T17:28:21;11.00;99.90
21318;DHT22;10818;50.830;6.524;2023-04-07T17:33:22;11.00;99.90
21318;DHT22;10818;50.830;6.524;2023-04-07T17:38:22;11.00;99.90
21318;DHT22;10818;50.830;6.524;2023-04-07T17:43:23;11.00;99.90
21318;DHT22;10818;50.830;6.524;2023-04-07T17:48:23;10.90;99.90
21318;DHT22;10818;50.830;6.524;2023-04-07T17:53:24;10.90;99.90
21318;DHT22;10818;50.830;6.524;2023-04-07T17:58:24;10.80;99.90
21318;DHT22;10818;50.830;6.524;2023-04-07T18:03:25;10.70;99.90
21318;DHT22;10818;50.830;6.524;2023-04-07T18:08:25;10.70;99.90
21318;DHT22;10818;50.830;6.524;2023-04-07T18:13:26;10.60;99.90
21318;DHT22;10818;50.830;6.524;2023-04-07T18:18:26;10.60;99.90
21318;DHT22;10818;50.830;6.524;2023-04-07T18:23:27;10.50;99.90
21318;DHT22;10818;50.830;6.524;2023-04-07T18:28:27;10.50;99.90
21318;DHT22;10818;50.830;6.524;2023-04-07T18:33:28;10.40;99.90
21318;DHT22;10818;50.830;6.524;2023-04-07T18:38:32;10.30;99.90
21318;DHT22;10818;50.830;6.524;2023-04-07T18:43:33;10.40;99.90
21318;DHT22;10818;50.830;6.524;2023-04-07T18:48:33;10.20;99.90
21318;DHT22;10818;50.830;6.524;2023-04-07T18:53:34;10.30;99.90
21318;DHT22;10818;50.830;6.524;2023-04-07T18:58:34;10.30;99.90
21318;DHT22;10818;50.830;6.524;2023-04-07T19:03:42;10.20;99.90
21318;DHT22;10818;50.830;6.524;2023-04-07T19:08:43;10.40;99.90
21318;DHT22;10818;50.830;6.524;2023-04-07T19:13:43;10.30;99.90
21318;DHT22;10818;50.830;6.524;2023-04-07T19:18:45;10.30;99.90
21318;DHT22;10818;50.830;6.524;2023-04-07T19:23:46;10.20;99.90
21318;DHT22;10818;50.830;6.524;2023-04-07T19:28:47;10.20;99.90
21318;DHT22;10818;50.830;6.524;2023-04-07T19:33:48;10.30;99.90
21318;DHT22;10818;50.830;6.524;2023-04-07T19:38:48;10.30;99.90
21318;DHT22;10818;50.830;6.524;2023-04-07T19:43:49;10.20;99.90
21318;DHT22;10818;50.830;6.524;2023-04-07T19:48:50;10.10;99.90
21318;DHT22;10818;50.830;6.524;2023-04-07T19:53:50;10.20;99.90
21318;DHT22;10818;50.830;6.524;2023-04-07T19:58:51;10.10;99.90
21318;DHT22;10818;50.830;6.524;2023-04-07T20:03:51;10.00;99.90
21318;DHT22;10818;50.830;6.524;2023-04-07T20:08:52;10.00;99.90
21318;DHT22;10818;50.830;6.524;2023-04-07T20:13:53;10.00;99.90
21318;DHT22;10818;50.830;6.524;2023-04-07T20:18:53;10.00;99.90
21318;DHT22;10818;50.830;6.524;2023-04-07T20:23:54;10.10;99.90
21318;DHT22;10818;50.830;6.524;2023-04-07T20:28:55;10.00;99.90
21318;DHT22;10818;50.830;6.524;2023-04-07T20:33:55;10.00;99.90
21318;DHT22;10818;50.830;6.524;2023-04-07T20:38:56;10.00;99.90
21318;DHT22;10818;50.830;6.524;2023-04-07T20:43:57;10.00;99.90
21318;DHT22;10818;50.830;6.524;2023-04-07T20:48:57;9.80;99.90
21318;DHT22;10818;50.830;6.524;2023-04-07T20:53:58;9.70;99.90
21318;DHT22;10818;50.830;6.524;2023-04-07T20:58:58;9.50;99.90
21318;DHT22;10818;50.830;6.524;2023-04-07T21:03:59;9.30;99.90
21318;DHT22;10818;50.830;6.524;2023-04-07T21:09:01;9.30;99.90
21318;DHT22;10818;50.830;6.524;2023-04-07T21:14:04;9.20;99.90
21318;DHT22;10818;50.830;6.524;2023-04-07T21:19:05;9.20;99.90
21318;DHT22;10818;50.830;6.524;2023-04-07T21:24:05;9.10;99.90
21318;DHT22;10818;50.830;6.524;2023-04-07T21:29:06;9.00;99.90
21318;DHT22;10818;50.830;6.524;2023-04-07T21:34:06;9.10;99.90
21318;DHT22;10818;50.830;6.524;2023-04-07T21:39:07;9.10;99.90
21318;DHT22;10818;50.830;6.524;2023-04-07T21:44:08;9.10;99.90
21318;DHT22;10818;50.830;6.524;2023-04-07T21:49:09;9.20;99.90
21318;DHT22;10818;50.830;6.524;2023-04-07T21:54:09;9.20;99.90
21318;DHT22;10818;50.830;6.524;2023-04-07T21:59:10;9.20;99.90
21318;DHT22;10818;50.830;6.524;2023-04-07T22:04:11;9.30;99.90
21318;DHT22;10818;50.830;6.524;2023-04-07T22:09:12;9.30;99.90
21318;DHT22;10818;50.830;6.524;2023-04-07T22:14:12;9.30;99.90
21318;DHT22;10818;50.830;6.524;2023-04-07T22:19:13;9.40;99.90
21318;DHT22;10818;50.830;6.524;2023-04-07T22:24:13;9.40;99.90
21318;DHT22;10818;50.830;6.524;2023-04-07T22:29:14;9.40;99.90
21318;DHT22;10818;50.830;6.524;2023-04-07T22:34:14;9.50;99.90
21318;DHT22;10818;50.830;6.524;2023-04-07T22:39:15;9.50;99.90
21318;DHT22;10818;50.830;6.524;2023-04-07T22:44:16;9.50;99.90
21318;DHT22;10818;50.830;6.524;2023-04-07T22:49:16;9.60;99.90
21318;DHT22;10818;50.830;6.524;2023-04-07T22:54:17;9.60;99.90
21318;DHT22;10818;50.830;6.524;2023-04-07T22:59:17;9.60;99.90
21318;DHT22;10818;50.830;6.524;2023-04-07T23:04:19;9.60;99.90
21318;DHT22;10818;50.830;6.524;2023-04-07T23:09:20;9.60;99.90
21318;DHT22;10818;50.830;6.524;2023-04-07T23:14:20;9.50;99.90
21318;DHT22;10818;50.830;6.524;2023-04-07T23:19:21;9.50;99.90
21318;DHT22;10818;50.830;6.524;2023-04-07T23:24:21;9.50;99.90
21318;DHT22;10818;50.830;6.524;2023-04-07T23:29:21;9.50;99.90
21318;DHT22;10818;50.830;6.524;2023-04-07T23:34:22;9.40;99.90
21318;DHT22;10818;50.830;6.524;2023-04-07T23:39:22;9.50;99.90
21318;DHT22;10818;50.830;6.524;2023-04-07T23:44:23;9.50;99.90
21318;DHT22;10818;50.830;6.524;2023-04-07T23:49:23;9.50;99.90
21318;DHT22;10818;50.830;6.524;2023-04-07T23:54:24;9.50;99.90
21318;DHT22;10818;50.830;6.524;2023-04-07T23:59:25;9.50;99.90
